Time;durP1;ratioP1;P1;durP2;ratioP2;P2;SDS_P1;SDS_P2;PMS_P1;PMS_P2;Temp;Humidity;BMP_temperature;BMP_pressure;BME280_temperature;BME280_humidity;BME280_pressure;Samples;Min_cycle;Max_cycle;Signal;HPM_P1;HPM_P2
2023/03/06 00:01:47;;;;;;;9.07;1.40;;;1.50;99.90;;;;;;5131110;27;20042;-48
2023/03/06 00:04:16;;;;;;;4.97;1.50;;;1.40;99.90;;;;;;5129926;27;20490;-47
2023/03/06 00:06:41;;;;;;;4.63;1.30;;;1.30;99.90;;;;;;5130630;27;20034;-48
2023/03/06 00:09:08;;;;;;;5.22;1.50;;;1.30;99.90;;;;;;5091190;28;20032;-47
2023/03/06 00:11:34;;;;;;;5.00;1.33;;;1.30;99.90;;;;;;5115368;27;20055;-47
2023/03/06 00:14:00;;;;;;;8.00;1.90;;;1.30;99.90;;;;;;5128058;27;20386;-49
2023/03/06 00:16:25;;;;;;;6.15;1.85;;;1.30;99.90;;;;;;5126902;27;20428;-48
2023/03/06 00:18:51;;;;;;;4.53;1.40;;;1.30;99.90;;;;;;5129117;27;20039;-47
2023/03/06 00:21:17;;;;;;;5.10;1.60;;;1.20;99.90;;;;;;5130231;27;20069;-48
2023/03/06 00:23:43;;;;;;;6.35;1.88;;;1.20;99.90;;;;;;5129673;27;20046;-47
2023/03/06 00:26:09;;;;;;;7.93;1.90;;;1.50;99.90;;;;;;5130944;27;20533;-47
2023/03/06 00:28:35;;;;;;;8.88;2.13;;;1.20;99.90;;;;;;5127430;27;20039;-49
2023/03/06 00:31:01;;;;;;;4.38;1.80;;;1.10;99.90;;;;;;5096882;28;20036;-47
2023/03/06 00:33:27;;;;;;;9.05;2.00;;;1.10;99.90;;;;;;5127264;27;20031;-50
2023/03/06 00:35:53;;;;;;;8.60;1.98;;;1.10;99.90;;;;;;5091317;27;20074;-47
2023/03/06 00:38:19;;;;;;;9.13;2.22;;;1.00;99.90;;;;;;5129255;27;20039;-46
2023/03/06 00:40:45;;;;;;;5.05;2.13;;;1.10;99.90;;;;;;5129652;27;20036;-49
2023/03/06 00:43:11;;;;;;;7.63;2.40;;;1.00;99.90;;;;;;5131158;27;20167;-47
2023/03/06 00:45:37;;;;;;;6.70;2.33;;;1.00;99.90;;;;;;5129994;27;20039;-48
2023/03/06 00:48:03;;;;;;;10.30;2.45;;;1.00;99.90;;;;;;5099202;28;20503;-47
2023/03/06 00:50:28;;;;;;;9.70;2.33;;;1.00;99.90;;;;;;5121361;27;20035;-47
2023/03/06 00:52:55;;;;;;;10.57;2.55;;;1.10;99.90;;;;;;5130190;27;20039;-48
2023/03/06 00:55:20;;;;;;;5.03;2.50;;;1.00;99.90;;;;;;5093455;28;20067;-48
2023/03/06 00:57:46;;;;;;;7.40;2.83;;;1.00;99.90;;;;;;5128873;27;20505;-47
2023/03/06 01:00:12;;;;;;;8.50;2.53;;;1.10;99.90;;;;;;5092025;28;20040;-46
2023/03/06 01:02:38;;;;;;;9.30;3.03;;;1.10;99.90;;;;;;5126262;27;20074;-50
2023/03/06 01:05:05;;;;;;;5.15;2.47;;;1.00;99.90;;;;;;5130067;27;20458;-46
2023/03/06 01:07:32;;;;;;;7.70;3.30;;;1.00;99.90;;;;;;5127808;27;20035;-49
2023/03/06 01:09:58;;;;;;;10.30;3.15;;;1.00;99.90;;;;;;5129372;27;20467;-49
2023/03/06 01:12:24;;;;;;;7.13;3.13;;;1.00;99.90;;;;;;5097349;28;20564;-48
2023/03/06 01:14:50;;;;;;;7.15;3.03;;;1.10;99.90;;;;;;5111581;27;20031;-49
2023/03/06 01:17:16;;;;;;;8.70;2.92;;;1.00;99.90;;;;;;5127300;27;20546;-49
2023/03/06 01:19:42;;;;;;;7.32;2.85;;;1.10;99.90;;;;;;5096235;28;20059;-46
2023/03/06 01:22:08;;;;;;;8.48;3.20;;;1.00;99.90;;;;;;5128050;27;20038;-50
2023/03/06 01:24:34;;;;;;;7.55;3.42;;;1.10;99.90;;;;;;5128733;27;20039;-48
2023/03/06 01:26:59;;;;;;;8.30;3.15;;;1.00;99.90;;;;;;5128502;27;20528;-48
2023/03/06 01:29:25;;;;;;;7.40;3.53;;;1.10;99.90;;;;;;5128271;28;20049;-48
2023/03/06 01:31:51;;;;;;;7.80;3.40;;;1.00;99.90;;;;;;5128929;28;20066;-50
2023/03/06 01:34:17;;;;;;;10.07;3.80;;;1.00;99.90;;;;;;5129474;28;22031;-50
2023/03/06 01:36:43;;;;;;;12.45;4.68;;;1.00;99.90;;;;;;5121248;28;20088;-48
2023/03/06 01:39:09;;;;;;;9.20;4.38;;;1.10;99.90;;;;;;5130053;28;20428;-47
2023/03/06 01:41:35;;;;;;;9.95;4.53;;;1.10;99.90;;;;;;5126852;28;20550;-48
2023/03/06 01:44:00;;;;;;;8.38;4.57;;;1.10;99.90;;;;;;5129716;28;20069;-49
2023/03/06 01:46:34;;;;;;;8.48;4.43;;;1.30;99.90;;;;;;5105647;28;20066;-51
2023/03/06 01:49:08;;;;;;;8.30;4.45;;;1.20;99.90;;;;;;5129091;28;20043;-46
2023/03/06 01:51:42;;;;;;;12.93;5.05;;;1.20;99.90;;;;;;5128255;28;20031;-49
2023/03/06 01:54:13;;;;;;;9.85;4.30;;;1.20;99.90;;;;;;5126983;28;20543;-50
2023/03/06 01:56:42;;;;;;;9.80;5.03;;;1.30;99.90;;;;;;5129462;28;20031;-47
2023/03/06 01:59:08;;;;;;;11.25;5.60;;;1.30;99.90;;;;;;5128570;28;20066;-49
2023/03/06 02:01:36;;;;;;;12.43;4.75;;;1.30;99.90;;;;;;5099354;28;20036;-48
2023/03/06 02:04:02;;;;;;;10.75;5.13;;;1.40;99.90;;;;;;5122578;28;20116;-49
2023/03/06 02:06:28;;;;;;;11.93;5.38;;;1.40;99.90;;;;;;5101587;28;20544;-47
2023/03/06 02:08:55;;;;;;;12.73;5.05;;;1.40;99.90;;;;;;5127829;28;20035;-46
2023/03/06 02:11:23;;;;;;;10.55;5.43;;;1.40;99.90;;;;;;5126118;28;20403;-49
2023/03/06 02:13:51;;;;;;;12.13;5.40;;;1.50;99.90;;;;;;5128795;28;20108;-47
2023/03/06 02:16:20;;;;;;;9.65;5.43;;;1.50;99.90;;;;;;5129935;28;20027;-49
2023/03/06 02:18:46;;;;;;;10.50;5.32;;;1.50;99.90;;;;;;5121973;28;20050;-49
2023/03/06 02:21:19;;;;;;;12.00;5.32;;;1.50;99.90;;;;;;5124021;28;20035;-50
2023/03/06 02:24:09;;;;;;;10.43;5.25;;;1.50;99.90;;;;;;5127258;28;20040;-48
2023/03/06 02:26:36;;;;;;;10.05;5.47;;;1.60;99.90;;;;;;5130107;27;20486;-51
2023/03/06 02:29:02;;;;;;;10.60;5.88;;;1.60;99.90;;;;;;5134420;27;20042;-49
2023/03/06 02:31:31;;;;;;;10.77;6.43;;;1.60;99.90;;;;;;5132864;27;20027;-49
2023/03/06 02:34:26;;;;;;;10.85;6.40;;;1.70;99.90;;;;;;5132585;27;20031;-47
2023/03/06 02:36:59;;;;;;;11.60;6.43;;;1.70;99.90;;;;;;5090018;27;20566;-48
2023/03/06 02:39:28;;;;;;;12.65;7.20;;;1.80;99.90;;;;;;5106952;27;20048;-49
2023/03/06 02:41:54;;;;;;;14.40;8.40;;;1.80;99.90;;;;;;5131355;27;20438;-49
2023/03/06 02:44:21;;;;;;;17.75;8.38;;;1.80;99.90;;;;;;5131685;27;20126;-48
2023/03/06 02:46:47;;;;;;;17.02;9.52;;;1.80;99.90;;;;;;5105424;28;20129;-51
2023/03/06 02:49:13;;;;;;;17.55;8.80;;;1.90;99.90;;;;;;5120212;27;20168;-49
2023/03/06 02:51:38;;;;;;;19.25;9.40;;;1.90;99.90;;;;;;5133844;27;20484;-48
2023/03/06 02:54:04;;;;;;;18.58;8.68;;;2.10;99.90;;;;;;5134226;27;20039;-48
2023/03/06 02:56:30;;;;;;;13.13;8.25;;;2.10;99.90;;;;;;5131853;27;20031;-48
2023/03/06 02:58:55;;;;;;;20.83;9.57;;;2.00;99.90;;;;;;5132748;27;20466;-49
2023/03/06 03:01:21;;;;;;;17.33;9.07;;;2.10;99.90;;;;;;5132396;27;20035;-48
2023/03/06 03:03:47;;;;;;;15.68;8.05;;;2.10;99.90;;;;;;5132152;27;20039;-48
2023/03/06 03:06:13;;;;;;;16.73;8.65;;;2.10;99.90;;;;;;5123242;27;20291;-48
2023/03/06 03:08:39;;;;;;;15.30;8.57;;;2.20;99.90;;;;;;5132029;27;20031;-49
2023/03/06 03:11:04;;;;;;;15.98;7.93;;;2.30;99.90;;;;;;5131444;27;20050;-49
2023/03/06 03:13:31;;;;;;;16.52;7.60;;;2.40;99.90;;;;;;5099338;28;20076;-47
2023/03/06 03:15:59;;;;;;;17.30;7.63;;;2.40;99.90;;;;;;5091779;28;20036;-48
2023/03/06 03:18:25;;;;;;;14.73;7.85;;;2.30;99.90;;;;;;5114984;27;20035;-47
2023/03/06 03:20:51;;;;;;;14.88;7.50;;;2.40;99.90;;;;;;5132226;27;20027;-48
2023/03/06 03:23:16;;;;;;;19.00;8.30;;;2.40;99.90;;;;;;5133656;27;20038;-48
2023/03/06 03:25:42;;;;;;;17.65;7.15;;;2.50;99.90;;;;;;5130469;27;20038;-49
2023/03/06 03:28:08;;;;;;;13.10;6.88;;;2.50;99.90;;;;;;5130482;27;20031;-51
2023/03/06 03:30:33;;;;;;;11.80;5.43;;;2.40;99.90;;;;;;5130457;27;20123;-49
2023/03/06 03:32:59;;;;;;;7.95;3.60;;;2.60;99.90;;;;;;5130945;27;20096;-48
2023/03/06 03:35:25;;;;;;;6.22;2.38;;;2.50;99.90;;;;;;5103631;28;20040;-48
2023/03/06 03:37:51;;;;;;;4.10;1.40;;;2.50;99.90;;;;;;5091843;28;20078;-48
2023/03/06 03:40:17;;;;;;;2.95;1.20;;;2.50;99.90;;;;;;5092537;28;20119;-49
2023/03/06 03:42:43;;;;;;;4.00;1.10;;;2.50;99.90;;;;;;5097408;27;20051;-52
2023/03/06 03:45:09;;;;;;;2.53;1.38;;;2.70;99.90;;;;;;5128543;27;20045;-48
2023/03/06 03:47:35;;;;;;;5.35;1.50;;;2.60;99.90;;;;;;5128577;27;20050;-50
2023/03/06 03:50:00;;;;;;;3.83;1.40;;;2.50;99.90;;;;;;5131694;27;20031;-48
2023/03/06 03:52:26;;;;;;;4.20;1.40;;;2.90;99.90;;;;;;5122765;27;20173;-51
2023/03/06 03:54:52;;;;;;;4.97;1.30;;;2.50;99.90;;;;;;5126734;27;20042;-49
2023/03/06 03:57:17;;;;;;;4.32;1.52;;;2.60;99.90;;;;;;5129979;27;20114;-49
2023/03/06 03:59:43;;;;;;;6.20;1.60;;;2.60;99.90;;;;;;5132016;27;20039;-47
2023/03/06 04:02:09;;;;;;;3.90;1.42;;;2.60;99.90;;;;;;5130803;27;20118;-47
2023/03/06 04:04:34;;;;;;;3.65;1.63;;;2.60;99.90;;;;;;5131399;27;20050;-48
2023/03/06 04:07:00;;;;;;;7.07;1.65;;;2.50;99.90;;;;;;5130101;27;20126;-46
2023/03/06 04:09:26;;;;;;;2.67;1.50;;;2.50;99.90;;;;;;5118696;27;20035;-49
2023/03/06 04:11:51;;;;;;;5.45;1.70;;;2.50;99.90;;;;;;5130629;27;20380;-47
2023/03/06 04:14:17;;;;;;;7.53;1.80;;;2.60;99.90;;;;;;5131272;27;20042;-47
2023/03/06 04:16:43;;;;;;;7.18;1.88;;;2.40;99.90;;;;;;5130423;27;20043;-49
2023/03/06 04:19:10;;;;;;;4.38;1.90;;;2.40;99.90;;;;;;5126855;27;20035;-47
2023/03/06 04:21:36;;;;;;;4.38;1.67;;;2.40;99.90;;;;;;5130756;27;20034;-51
2023/03/06 04:24:02;;;;;;;6.18;1.60;;;2.40;99.90;;;;;;5130276;27;20035;-49
2023/03/06 04:26:27;;;;;;;4.43;1.45;;;2.60;99.90;;;;;;5113514;27;20039;-49
2023/03/06 04:28:54;;;;;;;3.00;1.35;;;2.40;99.90;;;;;;5113616;27;20067;-50
2023/03/06 04:31:20;;;;;;;4.53;1.33;;;2.60;99.90;;;;;;5131557;27;20092;-47
2023/03/06 04:33:46;;;;;;;4.22;1.63;;;2.70;99.90;;;;;;5127789;27;20475;-47
2023/03/06 04:36:32;;;;;;;4.10;1.38;;;2.30;99.90;;;;;;5109404;27;20038;-48
2023/03/06 04:38:58;;;;;;;3.47;1.17;;;2.40;99.90;;;;;;5124658;27;20042;-46
2023/03/06 04:41:24;;;;;;;6.70;1.23;;;2.30;99.90;;;;;;5129799;27;20400;-46
2023/03/06 04:43:50;;;;;;;3.70;1.50;;;2.40;99.90;;;;;;5121091;27;20111;-48
2023/03/06 04:46:16;;;;;;;4.32;1.27;;;2.40;99.90;;;;;;5090828;28;20035;-46
2023/03/06 04:48:42;;;;;;;3.72;1.40;;;2.40;99.90;;;;;;5112463;27;20039;-46
2023/03/06 04:51:11;;;;;;;4.07;1.45;;;2.40;99.90;;;;;;5129405;27;20031;-48
2023/03/06 04:53:36;;;;;;;5.30;1.40;;;2.30;99.90;;;;;;5097802;28;20031;-49
2023/03/06 04:56:02;;;;;;;3.78;1.30;;;2.40;99.90;;;;;;5111569;27;20430;-50
2023/03/06 04:58:28;;;;;;;3.47;1.30;;;2.30;99.90;;;;;;5131349;27;20475;-51
2023/03/06 05:00:53;;;;;;;5.38;1.50;;;2.40;99.90;;;;;;5097601;27;20035;-47
2023/03/06 05:03:19;;;;;;;5.00;1.48;;;2.30;99.90;;;;;;5130127;27;20037;-47
2023/03/06 05:05:45;;;;;;;5.93;1.50;;;2.20;99.90;;;;;;5098632;27;20742;-48
2023/03/06 05:08:16;;;;;;;4.75;1.60;;;2.40;99.90;;;;;;5129151;27;20042;-49
2023/03/06 05:10:43;;;;;;;4.40;1.67;;;2.60;99.90;;;;;;5097712;27;20383;-49
2023/03/06 05:13:09;;;;;;;5.40;1.80;;;2.40;99.90;;;;;;5099678;28;20039;-51
2023/03/06 05:15:34;;;;;;;7.70;2.15;;;2.20;99.90;;;;;;5079270;27;20039;-47
2023/03/06 05:18:00;;;;;;;3.20;1.50;;;2.30;99.90;;;;;;5129891;27;20399;-51
2023/03/06 05:20:27;;;;;;;3.50;1.50;;;2.20;99.90;;;;;;5106678;27;20103;-48
2023/03/06 05:22:54;;;;;;;3.05;1.30;;;2.10;99.90;;;;;;5124754;27;20039;-49
2023/03/06 05:25:20;;;;;;;4.85;1.73;;;2.30;99.90;;;;;;5121157;27;20047;-50
2023/03/06 05:27:45;;;;;;;2.90;1.02;;;2.00;99.90;;;;;;5128260;27;20042;-49
2023/03/06 05:30:13;;;;;;;3.30;1.45;;;2.00;99.90;;;;;;5104366;27;20493;-51
2023/03/06 05:32:39;;;;;;;3.38;1.30;;;2.10;99.90;;;;;;5129924;28;20101;-50
2023/03/06 05:35:05;;;;;;;3.08;1.42;;;2.00;99.90;;;;;;5128333;28;20032;-47
2023/03/06 05:37:31;;;;;;;3.55;1.40;;;2.10;99.90;;;;;;5129436;28;20055;-48
2023/03/06 05:39:57;;;;;;;4.25;1.50;;;2.30;99.90;;;;;;5129248;28;20035;-48
2023/03/06 05:42:23;;;;;;;4.93;1.50;;;2.10;99.90;;;;;;5130051;28;20041;-48
2023/03/06 05:44:49;;;;;;;3.50;1.55;;;2.00;99.90;;;;;;5097370;28;20038;-50
2023/03/06 05:47:15;;;;;;;3.13;1.35;;;1.90;99.90;;;;;;5128829;28;20054;-47
2023/03/06 05:49:40;;;;;;;5.78;1.50;;;2.10;99.90;;;;;;5129684;28;20080;-51
2023/03/06 05:52:07;;;;;;;5.32;1.55;;;2.10;99.90;;;;;;5113180;28;20450;-50
2023/03/06 05:54:35;;;;;;;6.15;1.73;;;1.90;99.90;;;;;;5126927;28;20040;-50
2023/03/06 05:57:03;;;;;;;4.82;1.60;;;2.00;99.90;;;;;;5129154;28;20031;-49
2023/03/06 05:59:28;;;;;;;3.03;1.30;;;2.20;99.90;;;;;;5091088;28;20134;-49
2023/03/06 06:01:54;;;;;;;2.78;1.40;;;2.00;99.90;;;;;;5100196;28;20174;-49
2023/03/06 06:04:22;;;;;;;3.38;1.55;;;1.90;99.90;;;;;;5093130;28;20090;-48
2023/03/06 06:07:06;;;;;;;4.95;1.60;;;1.80;99.90;;;;;;5111176;27;20062;-49
2023/03/06 06:09:32;;;;;;;4.05;1.58;;;1.70;99.90;;;;;;5131687;27;20397;-49
2023/03/06 06:12:01;;;;;;;3.22;1.50;;;1.60;99.90;;;;;;5131957;27;20633;-49
2023/03/06 06:14:28;;;;;;;2.60;1.00;;;1.80;99.90;;;;;;5130108;27;20062;-50
2023/03/06 06:16:54;;;;;;;2.90;1.30;;;1.70;99.90;;;;;;5131418;27;20122;-47
2023/03/06 06:19:20;;;;;;;2.88;1.20;;;1.70;99.90;;;;;;5134699;27;20525;-50
2023/03/06 06:21:53;;;;;;;2.63;1.25;;;1.50;99.90;;;;;;5116154;27;20219;-51
2023/03/06 06:24:21;;;;;;;3.63;1.52;;;1.60;99.90;;;;;;5133432;27;20050;-48
2023/03/06 06:26:53;;;;;;;3.45;1.40;;;1.50;99.90;;;;;;5107835;27;20054;-49
2023/03/06 06:29:19;;;;;;;3.42;1.20;;;1.60;99.90;;;;;;5109988;27;20529;-47
2023/03/06 06:31:45;;;;;;;3.30;1.30;;;1.40;99.90;;;;;;5132554;27;20039;-48
2023/03/06 06:34:12;;;;;;;2.80;1.40;;;1.40;99.90;;;;;;5103436;28;20028;-49
2023/03/06 06:36:38;;;;;;;2.97;1.40;;;1.40;99.90;;;;;;5123019;27;20042;-53
2023/03/06 06:39:05;;;;;;;5.82;1.48;;;1.40;99.90;;;;;;5132712;27;20086;-50
2023/03/06 06:41:31;;;;;;;4.22;1.60;;;1.80;99.90;;;;;;5131935;27;20076;-47
2023/03/06 06:43:57;;;;;;;2.72;1.20;;;1.20;99.90;;;;;;5132267;27;20085;-47
2023/03/06 06:46:23;;;;;;;3.13;1.50;;;1.20;99.90;;;;;;5131899;27;20051;-48
2023/03/06 06:48:51;;;;;;;3.70;1.42;;;1.30;99.90;;;;;;5132762;27;20042;-50
2023/03/06 06:51:17;;;;;;;2.97;1.30;;;1.40;99.90;;;;;;5081335;27;20043;-50
2023/03/06 06:53:43;;;;;;;3.80;1.60;;;1.30;99.90;;;;;;5131061;27;20363;-50
2023/03/06 06:56:09;;;;;;;3.22;1.42;;;1.30;99.90;;;;;;5133021;27;20509;-49
2023/03/06 06:58:35;;;;;;;3.00;1.35;;;1.30;99.90;;;;;;5132604;27;20393;-48
2023/03/06 07:01:05;;;;;;;2.92;1.35;;;1.10;99.90;;;;;;5130985;27;20035;-51
2023/03/06 07:03:31;;;;;;;2.83;1.30;;;1.10;99.90;;;;;;5132355;27;20043;-47
2023/03/06 07:05:57;;;;;;;3.00;1.35;;;1.10;99.90;;;;;;5130290;27;20043;-50
2023/03/06 07:08:22;;;;;;;4.15;1.17;;;1.10;99.90;;;;;;5110048;27;20388;-51
2023/03/06 07:10:48;;;;;;;2.85;1.17;;;1.30;99.90;;;;;;5116354;27;20052;-50
2023/03/06 07:13:14;;;;;;;3.53;1.33;;;1.20;99.90;;;;;;5090340;27;20120;-47
2023/03/06 07:15:39;;;;;;;3.63;1.33;;;1.10;99.90;;;;;;5131751;27;20035;-50
2023/03/06 07:18:05;;;;;;;3.05;1.40;;;1.20;99.90;;;;;;5105605;27;20075;-48
2023/03/06 07:20:31;;;;;;;3.58;1.23;;;1.30;99.90;;;;;;5098666;27;20055;-49
2023/03/06 07:22:57;;;;;;;6.05;1.70;;;1.20;99.90;;;;;;5121541;27;20031;-48
2023/03/06 07:25:22;;;;;;;3.70;1.40;;;1.30;99.90;;;;;;5132667;27;20091;-47
2023/03/06 07:27:54;;;;;;;5.57;1.60;;;1.20;99.90;;;;;;5131222;27;20486;-46
2023/03/06 07:30:22;;;;;;;5.07;2.42;;;1.40;99.90;;;;;;5084571;28;20027;-48
2023/03/06 07:32:50;;;;;;;4.45;1.30;;;1.20;99.90;;;;;;5123714;27;20529;-48
2023/03/06 07:35:16;;;;;;;2.97;1.13;;;1.20;99.90;;;;;;5131441;27;20039;-46
2023/03/06 07:37:42;;;;;;;4.07;1.33;;;1.30;99.90;;;;;;5125484;27;20080;-47
2023/03/06 07:40:09;;;;;;;4.43;2.03;;;1.30;99.90;;;;;;5128988;27;20035;-47
2023/03/06 07:42:34;;;;;;;6.50;2.78;;;1.50;99.90;;;;;;5130471;27;20031;-47
2023/03/06 07:45:01;;;;;;;17.75;5.97;;;1.60;99.90;;;;;;5122025;27;20059;-47
2023/03/06 07:47:27;;;;;;;41.28;11.82;;;1.50;99.90;;;;;;5099854;28;20032;-47
2023/03/06 07:49:55;;;;;;;42.97;13.30;;;1.60;99.90;;;;;;5076109;28;20450;-49
2023/03/06 07:52:21;;;;;;;35.60;12.05;;;1.80;99.90;;;;;;5099831;28;20040;-47
2023/03/06 07:54:48;;;;;;;34.95;11.20;;;1.90;99.90;;;;;;5098434;27;20039;-50
2023/03/06 07:57:14;;;;;;;29.95;9.57;;;1.70;99.90;;;;;;5130147;27;20043;-48
2023/03/06 07:59:40;;;;;;;23.45;7.75;;;1.90;99.90;;;;;;5089266;28;20051;-50
2023/03/06 08:02:06;;;;;;;28.17;9.63;;;1.80;99.90;;;;;;5100431;27;20062;-48
2023/03/06 08:04:31;;;;;;;21.75;8.27;;;1.60;99.90;;;;;;5098614;27;21796;-49
2023/03/06 08:07:00;;;;;;;15.70;5.82;;;1.70;99.90;;;;;;5099335;28;20047;-49
2023/03/06 08:09:26;;;;;;;9.35;3.88;;;1.80;99.90;;;;;;5089282;27;20071;-50
2023/03/06 08:11:52;;;;;;;7.72;2.97;;;1.70;99.90;;;;;;5099363;27;20560;-48
2023/03/06 08:14:17;;;;;;;8.68;3.63;;;1.90;99.90;;;;;;5100925;27;20115;-48
2023/03/06 08:16:43;;;;;;;5.82;2.53;;;1.80;99.90;;;;;;5089841;27;20456;-47
2023/03/06 08:19:09;;;;;;;10.15;2.50;;;1.90;99.90;;;;;;5100107;27;20042;-48
2023/03/06 08:21:34;;;;;;;11.70;2.80;;;2.10;99.90;;;;;;5103364;27;20050;-46
2023/03/06 08:24:00;;;;;;;9.77;2.33;;;2.10;99.90;;;;;;5099754;27;20091;-49
2023/03/06 08:26:29;;;;;;;5.57;2.75;;;2.00;99.90;;;;;;5100889;27;20027;-46
2023/03/06 08:28:56;;;;;;;5.65;2.25;;;2.00;99.90;;;;;;5098649;27;20174;-48
2023/03/06 08:31:22;;;;;;;8.52;2.58;;;3.00;99.90;;;;;;5114653;27;20031;-48
2023/03/06 08:33:48;;;;;;;4.75;2.08;;;2.40;99.90;;;;;;5098825;27;20039;-51
2023/03/06 08:36:13;;;;;;;5.70;2.40;;;2.40;99.90;;;;;;5100134;27;20031;-50
2023/03/06 08:38:39;;;;;;;6.97;2.28;;;2.40;99.90;;;;;;5106303;27;20155;-48
2023/03/06 08:41:05;;;;;;;6.68;2.00;;;2.50;99.90;;;;;;5107627;27;20036;-52
2023/03/06 08:43:30;;;;;;;5.43;1.90;;;2.50;99.90;;;;;;5100902;27;20043;-49
2023/03/06 08:45:57;;;;;;;5.22;1.80;;;2.70;99.90;;;;;;5096988;27;20034;-50
2023/03/06 08:48:23;;;;;;;4.03;1.55;;;2.80;99.90;;;;;;5086811;27;20092;-46
2023/03/06 08:50:50;;;;;;;5.22;1.75;;;2.80;99.90;;;;;;5101259;27;20027;-48
2023/03/06 08:53:16;;;;;;;5.10;1.58;;;2.90;99.90;;;;;;5097444;27;20031;-46
2023/03/06 08:55:41;;;;;;;4.13;1.50;;;2.90;99.90;;;;;;5087769;27;20028;-50
2023/03/06 08:58:07;;;;;;;2.88;1.42;;;3.00;99.90;;;;;;5085166;27;20111;-47
2023/03/06 09:00:34;;;;;;;2.72;1.17;;;3.10;99.90;;;;;;5096419;28;20080;-46
2023/03/06 09:03:00;;;;;;;4.03;1.27;;;3.20;99.90;;;;;;5094921;28;20676;-48
2023/03/06 09:05:25;;;;;;;2.97;0.98;;;3.20;99.90;;;;;;5096284;27;20034;-48
2023/03/06 09:07:52;;;;;;;4.22;1.15;;;3.10;99.90;;;;;;5086658;28;20324;-46
2023/03/06 09:10:21;;;;;;;3.80;1.40;;;3.10;99.90;;;;;;5097790;28;20403;-47
2023/03/06 09:12:47;;;;;;;2.70;1.45;;;3.30;99.90;;;;;;5105637;27;20031;-48
2023/03/06 09:15:13;;;;;;;3.17;1.50;;;3.50;99.90;;;;;;5082748;28;20047;-50
2023/03/06 09:17:39;;;;;;;3.88;1.15;;;3.50;99.90;;;;;;5084305;28;20030;-49
2023/03/06 09:20:08;;;;;;;2.03;1.05;;;3.70;99.90;;;;;;5083697;28;20028;-48
2023/03/06 09:22:35;;;;;;;3.55;1.02;;;3.70;99.90;;;;;;5095906;27;20062;-47
2023/03/06 09:25:02;;;;;;;3.08;1.05;;;3.90;99.90;;;;;;5099372;27;20051;-48
2023/03/06 09:27:28;;;;;;;2.65;0.98;;;4.00;99.90;;;;;;5082189;28;20066;-48
2023/03/06 09:29:55;;;;;;;2.85;1.00;;;4.30;99.90;;;;;;5086801;28;20520;-47
2023/03/06 09:32:22;;;;;;;2.75;1.05;;;4.40;99.90;;;;;;5087613;28;20031;-48
2023/03/06 09:34:48;;;;;;;3.92;1.20;;;4.50;99.90;;;;;;5066579;28;20495;-50
2023/03/06 09:37:14;;;;;;;3.50;1.38;;;4.70;99.90;;;;;;5104156;27;20483;-48
2023/03/06 09:39:39;;;;;;;6.13;1.20;;;4.70;99.90;;;;;;5106051;27;20036;-47
2023/03/06 09:42:13;;;;;;;4.35;1.00;;;4.60;99.90;;;;;;5084060;27;20733;-48
2023/03/06 09:44:42;;;;;;;2.78;1.10;;;4.70;99.90;;;;;;5103910;27;20031;-48
2023/03/06 09:47:31;;;;;;;4.20;1.48;;;4.70;99.90;;;;;;5110995;27;20082;-47
2023/03/06 09:50:15;;;;;;;5.88;1.73;;;4.70;99.90;;;;;;5114241;27;20043;-51
2023/03/06 09:52:45;;;;;;;6.07;1.70;;;4.80;99.90;;;;;;5109059;27;20491;-47
2023/03/06 09:55:25;;;;;;;5.57;1.60;;;5.20;99.90;;;;;;5106771;27;20049;-50
2023/03/06 09:58:19;;;;;;;5.43;1.30;;;5.00;99.90;;;;;;5106401;27;20130;-50
2023/03/06 10:01:01;;;;;;;6.07;1.50;;;5.10;99.90;;;;;;5086214;27;20036;-49
2023/03/06 10:03:36;;;;;;;4.57;1.67;;;5.30;99.90;;;;;;5109717;27;20076;-48
2023/03/06 10:06:14;;;;;;;3.95;1.60;;;5.20;99.90;;;;;;5087304;27;20100;-47
2023/03/06 10:08:58;;;;;;;8.23;2.10;;;5.50;99.90;;;;;;5109193;27;20479;-46
2023/03/06 10:11:31;;;;;;;4.10;1.60;;;5.60;99.90;;;;;;5108816;27;20482;-46
2023/03/06 10:14:16;;;;;;;6.50;1.90;;;5.60;99.90;;;;;;5108660;27;20050;-49
2023/03/06 10:16:42;;;;;;;9.50;1.90;;;5.60;99.90;;;;;;5108030;27;20035;-48
2023/03/06 10:19:17;;;;;;;4.80;1.48;;;5.40;99.90;;;;;;5083113;27;20039;-51
2023/03/06 10:21:53;;;;;;;5.18;1.48;;;5.20;99.90;;;;;;5109045;27;20073;-49
2023/03/06 10:24:34;;;;;;;4.90;1.40;;;5.00;99.90;;;;;;5110051;27;20041;-48
2023/03/06 10:27:28;;;;;;;3.17;1.20;;;4.80;99.90;;;;;;5108399;27;20137;-51
2023/03/06 10:30:21;;;;;;;6.55;1.42;;;4.70;99.90;;;;;;5112005;27;20613;-48
2023/03/06 10:33:07;;;;;;;3.95;1.20;;;4.60;99.90;;;;;;5088657;27;20035;-47
2023/03/06 10:35:51;;;;;;;5.25;1.40;;;4.60;99.90;;;;;;5087701;27;20039;-48
2023/03/06 10:38:28;;;;;;;4.75;1.15;;;4.70;99.90;;;;;;5110737;27;20047;-49
2023/03/06 10:41:20;;;;;;;4.20;1.08;;;5.00;99.90;;;;;;5110051;27;20043;-48
2023/03/06 10:44:04;;;;;;;3.25;0.60;;;5.30;99.90;;;;;;5108800;27;20606;-52
2023/03/06 10:46:34;;;;;;;2.60;0.60;;;5.60;99.90;;;;;;5107105;27;20119;-48
2023/03/06 10:49:02;;;;;;;4.00;0.80;;;5.70;99.90;;;;;;5104528;27;20032;-50
2023/03/06 10:51:29;;;;;;;3.30;0.80;;;5.70;99.90;;;;;;5106223;27;20059;-49
2023/03/06 10:54:01;;;;;;;2.78;1.02;;;5.80;99.90;;;;;;5103050;27;20060;-47
2023/03/06 10:56:29;;;;;;;2.60;0.80;;;5.90;99.90;;;;;;5102355;27;20028;-50
2023/03/06 10:59:17;;;;;;;3.80;0.90;;;6.20;99.90;;;;;;5100802;27;20050;-51
2023/03/06 11:01:49;;;;;;;4.22;1.10;;;6.30;99.90;;;;;;5099161;27;20048;-47
2023/03/06 11:04:23;;;;;;;2.95;0.75;;;6.50;99.90;;;;;;5107396;27;20039;-49
2023/03/06 11:07:17;;;;;;;3.85;0.77;;;6.60;99.90;;;;;;5104428;27;20073;-47
2023/03/06 11:10:04;;;;;;;5.43;1.08;;;6.80;99.90;;;;;;5081858;27;20044;-48
2023/03/06 11:12:32;;;;;;;3.63;0.88;;;7.10;99.90;;;;;;5106573;27;20110;-49
2023/03/06 11:15:13;;;;;;;6.63;1.15;;;6.60;99.90;;;;;;5110038;27;20038;-48
2023/03/06 11:18:03;;;;;;;3.20;1.08;;;6.40;99.90;;;;;;5102606;27;20075;-50
2023/03/06 11:20:32;;;;;;;2.55;0.85;;;6.30;99.90;;;;;;5063945;27;20051;-48
2023/03/06 11:23:06;;;;;;;3.20;0.80;;;6.40;99.90;;;;;;5105352;27;20038;-48
2023/03/06 11:25:38;;;;;;;2.03;0.60;;;6.40;99.90;;;;;;5107249;27;20042;-49
2023/03/06 11:28:39;;;;;;;3.20;0.70;;;6.40;99.90;;;;;;5108555;27;20071;-49
2023/03/06 11:31:19;;;;;;;5.07;0.70;;;6.40;99.90;;;;;;5047073;27;20543;-51
2023/03/06 11:33:52;;;;;;;2.13;0.63;;;6.40;99.90;;;;;;5103939;27;20036;-46
2023/03/06 11:36:39;;;;;;;2.42;0.73;;;6.30;99.90;;;;;;5104895;27;20035;-51
2023/03/06 11:39:27;;;;;;;4.60;0.80;;;6.30;99.90;;;;;;5105523;27;20043;-52
2023/03/06 11:42:10;;;;;;;1.17;0.70;;;6.40;99.90;;;;;;5090791;27;20084;-50
2023/03/06 11:44:51;;;;;;;2.55;0.73;;;6.70;99.90;;;;;;5106394;27;20039;-49
2023/03/06 11:48:00;;;;;;;2.47;0.40;;;6.80;99.90;;;;;;5102968;27;20122;-50
2023/03/06 11:50:42;;;;;;;3.20;0.60;;;7.00;99.90;;;;;;5102452;27;21658;-50
2023/03/06 11:53:26;;;;;;;2.70;0.60;;;7.10;99.90;;;;;;5105965;27;20491;-49
2023/03/06 11:56:01;;;;;;;1.83;0.55;;;7.00;99.90;;;;;;5105279;27;20105;-50
2023/03/06 11:58:56;;;;;;;4.07;0.80;;;7.00;99.90;;;;;;5078086;28;20394;-47
2023/03/06 12:01:40;;;;;;;2.35;0.60;;;6.90;99.90;;;;;;5105392;27;20395;-48
2023/03/06 12:04:12;;;;;;;2.27;0.60;;;7.50;99.90;;;;;;5103015;27;20251;-51
2023/03/06 12:06:53;;;;;;;4.30;0.77;;;7.50;99.90;;;;;;5103292;27;20814;-48
2023/03/06 12:09:49;;;;;;;2.10;0.57;;;7.60;99.90;;;;;;5103220;27;20127;-50
2023/03/06 12:12:30;;;;;;;2.42;0.40;;;7.80;99.90;;;;;;5102702;27;20056;-50
2023/03/06 12:15:23;;;;;;;1.73;0.43;;;7.80;99.90;;;;;;5100832;27;20398;-48
2023/03/06 12:18:18;;;;;;;1.40;0.50;;;8.00;99.90;;;;;;5108959;27;20027;-52
2023/03/06 12:21:11;;;;;;;2.58;0.85;;;8.10;99.90;;;;;;5102889;27;20039;-51
2023/03/06 12:24:05;;;;;;;3.97;0.60;;;8.10;99.90;;;;;;5103494;27;20085;-48
2023/03/06 12:27:08;;;;;;;0.95;0.40;;;8.00;99.90;;;;;;5103147;27;20570;-52
2023/03/06 12:30:02;;;;;;;2.42;0.55;;;7.90;99.90;;;;;;5097174;27;20085;-49
2023/03/06 12:32:36;;;;;;;2.72;0.68;;;7.90;99.90;;;;;;5103778;27;20059;-48
2023/03/06 12:35:23;;;;;;;1.05;0.40;;;8.00;99.90;;;;;;5104976;27;20720;-47
2023/03/06 12:38:23;;;;;;;2.28;0.60;;;8.10;99.90;;;;;;5099375;27;20058;-49
2023/03/06 12:41:04;;;;;;;2.10;0.50;;;8.10;99.90;;;;;;5081938;27;20047;-48
2023/03/06 12:43:35;;;;;;;1.40;0.40;;;8.20;99.90;;;;;;5103720;27;20028;-48
2023/03/06 12:46:12;;;;;;;3.80;0.57;;;8.20;99.90;;;;;;5102553;27;20043;-48
2023/03/06 12:48:40;;;;;;;1.95;0.52;;;8.30;99.90;;;;;;5079087;27;20490;-48
2023/03/06 12:51:16;;;;;;;2.92;0.50;;;8.30;99.90;;;;;;5095352;27;20043;-47
2023/03/06 12:53:43;;;;;;;4.53;0.60;;;8.40;99.90;;;;;;5101658;27;20067;-50
2023/03/06 12:56:13;;;;;;;5.65;0.68;;;8.40;99.90;;;;;;5098986;27;20039;-47
2023/03/06 12:58:53;;;;;;;2.05;0.40;;;8.60;99.90;;;;;;5111278;27;20040;-47
2023/03/06 13:02:13;;;;;;;2.60;0.43;;;8.70;99.90;;;;;;5117153;27;20483;-48
2023/03/06 13:05:06;;;;;;;2.63;0.60;;;8.60;99.90;;;;;;5097095;27;20078;-48
2023/03/06 13:07:51;;;;;;;2.90;0.50;;;8.70;99.90;;;;;;5109872;27;20047;-48
2023/03/06 13:10:34;;;;;;;2.13;0.60;;;8.80;99.90;;;;;;5126686;27;20035;-49
2023/03/06 13:13:33;;;;;;;3.15;0.70;;;8.90;99.90;;;;;;5107748;27;20039;-50